createdAt,value
2022-10-02T00:02:12.750Z,23.83
2022-10-02T00:05:09.201Z,26.80
2022-10-02T00:08:21.986Z,30.48
2022-10-02T00:11:38.414Z,26.45
2022-10-02T00:14:27.784Z,27.73
2022-10-02T00:17:37.004Z,28.88
2022-10-02T00:20:38.338Z,35.38
2022-10-02T00:23:47.377Z,34.08
2022-10-02T00:29:51.441Z,33.78
2022-10-02T00:32:39.144Z,36.13
2022-10-02T00:35:33.806Z,37.00
2022-10-02T00:38:23.287Z,36.28
2022-10-02T00:41:16.369Z,38.42
2022-10-02T00:44:16.340Z,35.85
2022-10-02T00:47:31.975Z,35.85
2022-10-02T00:50:22.780Z,39.45
2022-10-02T00:56:14.068Z,35.65
2022-10-02T00:59:20.365Z,37.15
2022-10-02T01:02:49.385Z,36.90
2022-10-02T01:05:34.859Z,32.85
2022-10-02T01:08:21.142Z,32.72
2022-10-02T01:11:07.876Z,29.75
2022-10-02T01:13:53.073Z,28.20
2022-10-02T01:16:41.330Z,30.25
2022-10-02T01:19:41.377Z,29.55
2022-10-02T01:22:42.400Z,29.52
2022-10-02T01:25:27.841Z,29.90
2022-10-02T01:28:12.577Z,31.48
2022-10-02T01:31:04.480Z,31.40
2022-10-02T01:33:50.184Z,32.80
2022-10-02T01:36:35.382Z,34.38
2022-10-02T01:39:21.931Z,34.95
2022-10-02T01:42:06.963Z,27.25
2022-10-02T01:44:51.967Z,35.13
2022-10-02T01:47:46.384Z,30.13
2022-10-02T01:50:31.102Z,30.65
2022-10-02T01:53:43.395Z,32.55
2022-10-02T01:56:44.985Z,33.50
2022-10-02T01:59:35.501Z,32.10
2022-10-02T02:02:46.425Z,31.23
2022-10-02T02:06:06.737Z,24.42
2022-10-02T02:09:02.024Z,28.02
2022-10-02T02:12:01.229Z,29.70
2022-10-02T02:14:50.323Z,25.65
2022-10-02T02:17:50.266Z,27.30
2022-10-02T02:20:46.781Z,24.17
2022-10-02T02:23:35.580Z,26.02
2022-10-02T02:26:22.313Z,24.83
2022-10-02T02:29:09.010Z,24.65
2022-10-02T02:31:57.756Z,24.25
2022-10-02T02:34:47.665Z,27.38
2022-10-02T02:37:36.940Z,26.33
2022-10-02T02:40:28.924Z,31.33
2022-10-02T02:43:34.501Z,32.92
2022-10-02T02:46:31.777Z,31.90
2022-10-02T02:49:16.718Z,38.13
2022-10-02T02:52:04.719Z,35.72
2022-10-02T02:55:02.958Z,38.33
2022-10-02T02:57:54.555Z,34.25
2022-10-02T03:00:39.456Z,30.88
2022-10-02T03:03:25.110Z,36.33
2022-10-02T03:06:16.644Z,41.42
2022-10-02T03:09:02.014Z,33.65
2022-10-02T03:12:05.899Z,34.97
2022-10-02T03:15:13.189Z,34.67
2022-10-02T03:18:03.929Z,33.20
2022-10-02T03:21:07.569Z,28.45
2022-10-02T03:24:15.511Z,30.83
2022-10-02T03:27:08.986Z,31.80
2022-10-02T03:30:02.214Z,29.13
2022-10-02T03:32:52.968Z,32.42
2022-10-02T03:35:38.280Z,29.63
2022-10-02T03:38:24.781Z,30.20
2022-10-02T03:41:10.493Z,31.92
2022-10-02T03:43:55.562Z,32.45
2022-10-02T03:46:40.813Z,32.08
2022-10-02T03:49:25.978Z,32.30
2022-10-02T03:52:16.001Z,30.88
2022-10-02T03:55:12.894Z,31.27
2022-10-02T03:57:59.267Z,31.13
2022-10-02T04:01:01.406Z,33.55
2022-10-02T04:03:55.403Z,30.85
2022-10-02T04:06:50.302Z,31.92
2022-10-02T04:10:04.541Z,31.92
2022-10-02T04:12:52.623Z,32.83
2022-10-02T04:15:52.328Z,31.30
2022-10-02T04:18:42.910Z,31.45
2022-10-02T04:21:42.933Z,30.27
2022-10-02T04:24:46.998Z,28.42
2022-10-02T04:27:39.991Z,31.08
2022-10-02T04:30:25.205Z,30.23
2022-10-02T04:33:17.215Z,26.02
2022-10-02T04:36:08.203Z,27.08
2022-10-02T04:39:12.655Z,22.88
2022-10-02T04:42:14.645Z,22.50
2022-10-02T04:45:02.210Z,21.20
2022-10-02T04:48:22.560Z,22.13
2022-10-02T04:51:26.737Z,21.35
2022-10-02T04:54:29.794Z,20.38
2022-10-02T05:00:12.919Z,20.73
2022-10-02T05:03:10.302Z,19.45
2022-10-02T05:06:01.238Z,19.83
2022-10-02T05:09:04.470Z,16.05
2022-10-02T05:12:28.787Z,18.02
2022-10-02T05:15:19.695Z,17.08
2022-10-02T05:18:41.127Z,12.80
2022-10-02T05:21:44.009Z,14.77
2022-10-02T05:24:47.192Z,12.88
2022-10-02T05:27:50.349Z,14.85
2022-10-02T05:31:10.705Z,14.07
2022-10-02T05:34:19.826Z,14.15
2022-10-02T05:37:15.587Z,13.02
2022-10-02T05:40:18.981Z,11.68
2022-10-02T05:43:06.916Z,11.43
2022-10-02T05:45:58.468Z,7.90
2022-10-02T05:49:13.600Z,8.40
2022-10-02T05:52:37.179Z,8.07
2022-10-02T05:55:27.888Z,6.80
2022-10-02T05:58:24.276Z,6.47
2022-10-02T06:01:19.435Z,5.18
2022-10-02T06:04:33.249Z,3.65
2022-10-02T06:07:20.186Z,4.35
2022-10-02T06:10:18.711Z,4.47
2022-10-02T06:13:30.476Z,4.75
2022-10-02T06:16:51.203Z,4.28
2022-10-02T06:19:45.146Z,4.50
2022-10-02T06:22:39.366Z,3.55
2022-10-02T06:25:33.239Z,4.50
2022-10-02T06:28:27.209Z,4.93
2022-10-02T06:31:30.678Z,5.82
2022-10-02T06:34:15.878Z,6.25
2022-10-02T06:37:17.591Z,5.97
2022-10-02T06:40:30.446Z,7.40
2022-10-02T06:43:33.690Z,6.32
2022-10-02T06:46:35.639Z,6.47
2022-10-02T06:49:32.992Z,6.80
2022-10-02T06:52:38.288Z,8.85
2022-10-02T06:55:40.476Z,6.72
2022-10-02T06:58:34.396Z,7.35
2022-10-02T07:01:31.037Z,6.30
2022-10-02T07:04:31.574Z,7.18
2022-10-02T07:07:19.282Z,5.72
2022-10-02T07:10:25.524Z,7.10
2022-10-02T07:13:25.373Z,6.07
2022-10-02T07:16:37.978Z,6.15
2022-10-02T07:19:38.174Z,7.05
2022-10-02T07:22:43.867Z,6.50
2022-10-02T07:25:35.825Z,6.13
2022-10-02T07:28:43.043Z,5.60
2022-10-02T07:32:00.182Z,6.38
2022-10-02T07:35:26.632Z,6.25
2022-10-02T07:38:48.295Z,6.18
2022-10-02T07:41:52.190Z,4.82
2022-10-02T07:45:03.475Z,7.30
2022-10-02T07:48:18.852Z,4.43
2022-10-02T07:51:26.582Z,6.97
2022-10-02T07:54:33.377Z,4.90
2022-10-02T07:58:02.974Z,3.92
2022-10-02T08:01:13.304Z,5.25
2022-10-02T08:04:36.922Z,3.80
2022-10-02T08:07:22.461Z,4.82
2022-10-02T08:10:12.293Z,4.95
2022-10-02T08:13:04.419Z,5.45
2022-10-02T08:15:54.955Z,7.25
2022-10-02T08:18:48.489Z,5.10
2022-10-02T08:21:43.115Z,4.90
2022-10-02T08:24:36.041Z,3.90
2022-10-02T08:27:28.198Z,4.10
2022-10-02T08:30:13.978Z,3.65
2022-10-02T08:32:58.589Z,3.42
2022-10-02T08:36:18.870Z,4.05
2022-10-02T08:39:09.453Z,5.03
2022-10-02T08:42:19.117Z,3.75
2022-10-02T08:45:23.615Z,4.05
2022-10-02T08:48:48.989Z,5.05
2022-10-02T08:52:00.331Z,3.70
2022-10-02T08:55:38.025Z,3.50
2022-10-02T08:58:43.310Z,3.90
2022-10-02T09:01:38.644Z,4.00
2022-10-02T09:05:00.303Z,3.85
2022-10-02T09:08:07.661Z,3.22
2022-10-02T09:11:01.886Z,3.90
2022-10-02T09:14:12.093Z,3.15
2022-10-02T09:17:15.683Z,2.60
2022-10-02T09:20:19.164Z,2.50
2022-10-02T09:23:22.648Z,3.03
2022-10-02T09:26:19.150Z,4.28
2022-10-02T09:29:32.349Z,3.58
2022-10-02T09:32:42.608Z,4.18
2022-10-02T09:35:54.538Z,4.47
2022-10-02T09:38:55.174Z,5.47
2022-10-02T09:41:49.682Z,4.28
2022-10-02T09:45:01.231Z,5.15
2022-10-02T09:48:04.684Z,4.35
2022-10-02T09:51:26.866Z,3.58
2022-10-02T09:54:21.058Z,4.03
2022-10-02T09:57:31.120Z,4.78
2022-10-02T10:00:44.224Z,3.75
2022-10-02T10:03:47.186Z,5.40
2022-10-02T10:06:44.039Z,4.13
2022-10-02T10:09:41.153Z,3.95
2022-10-02T10:12:48.925Z,5.40
2022-10-02T10:15:56.976Z,5.25
2022-10-02T10:18:47.391Z,6.05
2022-10-02T10:21:58.270Z,6.20
2022-10-02T10:25:09.642Z,6.40
2022-10-02T10:28:23.823Z,7.65
2022-10-02T10:31:18.095Z,9.95
2022-10-02T10:34:37.264Z,6.78
2022-10-02T10:38:13.671Z,4.43
2022-10-02T10:41:30.037Z,6.03
2022-10-02T10:44:30.998Z,7.07
2022-10-02T10:47:43.190Z,7.05
2022-10-02T10:50:49.525Z,5.57
2022-10-02T10:53:49.156Z,4.82
2022-10-02T10:57:12.693Z,4.32
2022-10-02T11:00:12.339Z,4.82
2022-10-02T11:03:29.396Z,6.80
2022-10-02T11:06:32.642Z,4.85
2022-10-02T11:09:32.410Z,4.95
2022-10-02T11:12:33.341Z,5.53
2022-10-02T11:15:51.912Z,6.75
2022-10-02T11:19:16.766Z,9.02
2022-10-02T11:22:07.785Z,6.20
2022-10-02T11:25:13.997Z,5.68
2022-10-02T11:28:27.954Z,5.55
2022-10-02T11:31:41.951Z,5.05
2022-10-02T11:34:54.874Z,6.85
2022-10-02T11:38:18.930Z,5.13
2022-10-02T11:41:12.681Z,6.28
2022-10-02T11:43:59.130Z,3.92
2022-10-02T11:47:17.412Z,6.45
2022-10-02T11:50:34.713Z,5.78
2022-10-02T11:53:43.986Z,4.38
2022-10-02T11:56:35.033Z,6.28
2022-10-02T11:59:41.622Z,6.38
2022-10-02T12:02:56.920Z,6.00
2022-10-02T12:06:20.330Z,10.45
2022-10-02T12:09:19.638Z,5.93
2022-10-02T12:12:23.468Z,5.22
2022-10-02T12:15:15.307Z,4.90
2022-10-02T12:18:26.480Z,4.40
2022-10-02T12:22:24.164Z,4.70
2022-10-02T12:25:46.588Z,5.00
2022-10-02T12:28:40.598Z,4.57
2022-10-02T12:31:37.747Z,6.18
2022-10-02T12:34:54.917Z,5.53
2022-10-02T12:37:55.935Z,6.60
2022-10-02T12:41:07.978Z,4.75
2022-10-02T12:43:58.932Z,5.57
2022-10-02T12:47:09.324Z,7.07
2022-10-02T12:50:21.078Z,5.18
2022-10-02T12:53:25.067Z,5.30
2022-10-02T12:56:55.819Z,5.25
2022-10-02T12:59:58.038Z,5.38
2022-10-02T13:03:04.920Z,4.38
2022-10-02T13:06:18.449Z,5.93
2022-10-02T13:09:19.341Z,5.30
2022-10-02T13:12:31.853Z,5.57
2022-10-02T13:15:22.905Z,5.80
2022-10-02T13:18:52.336Z,6.10
2022-10-02T13:22:01.956Z,5.97
2022-10-02T13:28:13.051Z,5.30
2022-10-02T13:31:11.313Z,6.07
2022-10-02T13:34:08.816Z,4.97
2022-10-02T13:37:02.341Z,5.00
2022-10-02T13:40:02.384Z,3.85
2022-10-02T13:43:17.323Z,7.00
2022-10-02T13:46:18.905Z,5.75
2022-10-02T13:49:31.204Z,5.07
2022-10-02T13:52:34.425Z,5.95
2022-10-02T13:58:53.017Z,5.53
2022-10-02T14:01:50.041Z,7.38
2022-10-02T14:04:54.826Z,5.47
2022-10-02T14:07:58.960Z,5.93
2022-10-02T14:10:52.799Z,7.05
2022-10-02T14:14:01.206Z,7.55
2022-10-02T14:17:00.582Z,7.00
2022-10-02T14:20:00.738Z,5.47
2022-10-02T14:23:10.032Z,7.05
2022-10-02T14:26:16.404Z,5.90
2022-10-02T14:29:09.070Z,6.75
2022-10-02T14:32:20.533Z,6.55
2022-10-02T14:35:33.634Z,6.18
2022-10-02T14:38:21.270Z,7.20
2022-10-02T14:41:27.624Z,7.55
2022-10-02T14:44:34.736Z,5.60
2022-10-02T14:47:35.266Z,8.38
2022-10-02T14:50:49.160Z,6.00
2022-10-02T14:54:01.943Z,9.60
2022-10-02T14:57:15.204Z,8.95
2022-10-02T15:00:24.149Z,7.05
2022-10-02T15:03:23.616Z,9.18
2022-10-02T15:06:08.352Z,6.30
2022-10-02T15:09:13.342Z,7.22
2022-10-02T15:12:07.222Z,6.13
2022-10-02T15:14:52.070Z,5.25
2022-10-02T15:17:55.043Z,5.10
2022-10-02T15:21:00.646Z,4.70
2022-10-02T15:23:51.561Z,5.40
2022-10-02T15:29:33.988Z,5.40
2022-10-02T15:33:01.520Z,6.82
2022-10-02T15:35:46.533Z,6.38
2022-10-02T15:38:50.165Z,11.00
2022-10-02T15:41:59.755Z,5.72
2022-10-02T15:45:11.003Z,8.85
2022-10-02T15:48:14.439Z,6.78
2022-10-02T15:50:59.167Z,6.97
2022-10-02T15:54:05.582Z,7.63
2022-10-02T15:57:33.527Z,7.32
2022-10-02T16:00:20.876Z,8.20
2022-10-02T16:03:15.598Z,7.10
2022-10-02T16:06:13.007Z,6.95
2022-10-02T16:09:09.706Z,6.40
2022-10-02T16:12:17.290Z,5.40
2022-10-02T16:15:17.679Z,5.57
2022-10-02T16:18:05.513Z,5.63
2022-10-02T16:20:53.281Z,6.28
2022-10-02T16:23:53.428Z,7.97
2022-10-02T16:27:17.371Z,5.78
2022-10-02T16:30:10.492Z,7.05
2022-10-02T16:33:14.330Z,6.32
2022-10-02T16:36:37.786Z,6.60
2022-10-02T16:39:54.699Z,6.55
2022-10-02T16:43:32.189Z,5.30
2022-10-02T16:46:25.462Z,6.05
2022-10-02T16:49:16.264Z,5.60
2022-10-02T16:55:34.097Z,5.07
2022-10-02T16:58:28.087Z,6.75
2022-10-02T17:01:25.716Z,5.90
2022-10-02T17:04:16.807Z,6.85
2022-10-02T17:10:01.755Z,7.03
2022-10-02T17:13:13.243Z,6.20
2022-10-02T17:16:42.178Z,9.00
2022-10-02T17:19:55.594Z,7.68
2022-10-02T17:23:10.029Z,8.30
2022-10-02T17:26:03.823Z,9.88
2022-10-02T17:28:56.724Z,7.70
2022-10-02T17:31:53.778Z,9.35
2022-10-02T17:34:48.917Z,9.45
2022-10-02T17:37:52.820Z,9.95
2022-10-02T17:43:38.655Z,9.57
2022-10-02T17:47:01.245Z,14.68
2022-10-02T17:49:49.034Z,13.75
2022-10-02T17:53:11.198Z,12.68
2022-10-02T17:56:30.017Z,13.55
2022-10-02T17:59:21.450Z,12.90
2022-10-02T18:02:40.319Z,14.52
2022-10-02T18:05:53.543Z,11.15
2022-10-02T18:09:00.460Z,14.70
2022-10-02T18:12:06.937Z,13.15
2022-10-02T18:15:16.361Z,12.85
2022-10-02T18:18:13.282Z,10.90
2022-10-02T18:21:53.158Z,12.65
2022-10-02T18:25:11.133Z,11.27
2022-10-02T18:28:23.597Z,10.55
2022-10-02T18:31:54.672Z,11.70
2022-10-02T18:35:03.649Z,9.60
2022-10-02T18:37:58.303Z,9.23
2022-10-02T18:41:25.489Z,11.50
2022-10-02T18:44:33.641Z,10.30
2022-10-02T18:47:52.353Z,11.25
2022-10-02T18:51:07.211Z,10.52
2022-10-02T18:54:07.454Z,10.00
2022-10-02T18:57:07.222Z,9.57
2022-10-02T19:00:14.900Z,11.75
2022-10-02T19:03:17.140Z,11.82
2022-10-02T19:06:26.957Z,11.35
2022-10-02T19:09:26.372Z,11.98
2022-10-02T19:12:23.349Z,10.52
2022-10-02T19:15:20.736Z,10.30
2022-10-02T19:18:13.967Z,12.75
2022-10-02T19:21:12.508Z,11.32
2022-10-02T19:24:14.574Z,12.80
2022-10-02T19:27:05.273Z,11.68
2022-10-02T19:29:57.497Z,13.38
2022-10-02T19:32:42.334Z,11.35
2022-10-02T19:35:33.824Z,11.80
2022-10-02T19:38:38.241Z,10.80
2022-10-02T19:41:23.263Z,9.85
2022-10-02T19:44:37.644Z,11.55
2022-10-02T19:47:28.877Z,11.50
2022-10-02T19:50:39.743Z,11.77
2022-10-02T19:53:32.788Z,11.77
2022-10-02T19:56:25.699Z,11.80
2022-10-02T19:59:14.546Z,9.90
2022-10-02T20:02:10.591Z,9.85
2022-10-02T20:05:00.723Z,10.63
2022-10-02T20:07:47.723Z,11.45
2022-10-02T20:10:36.221Z,14.10
2022-10-02T20:13:42.901Z,11.57
2022-10-02T20:16:46.100Z,9.65
2022-10-02T20:19:35.612Z,11.85
2022-10-02T20:22:54.921Z,11.20
2022-10-02T20:25:47.629Z,10.15
2022-10-02T20:28:41.865Z,10.80
2022-10-02T20:31:39.602Z,9.50
2022-10-02T20:34:43.680Z,9.77
2022-10-02T20:37:34.287Z,10.77
2022-10-02T20:40:26.968Z,10.80
2022-10-02T20:43:45.648Z,9.55
2022-10-02T20:46:33.291Z,11.98
2022-10-02T20:49:39.695Z,10.63
2022-10-02T20:52:24.315Z,11.27
2022-10-02T20:55:44.486Z,13.15
2022-10-02T20:58:50.747Z,12.65
2022-10-02T21:02:00.569Z,15.27
2022-10-02T21:05:20.414Z,15.68
2022-10-02T21:08:25.508Z,14.38
2022-10-02T21:11:20.427Z,16.38
2022-10-02T21:14:26.780Z,13.25
2022-10-02T21:17:18.061Z,15.20
2022-10-02T21:20:49.821Z,13.20
2022-10-02T21:23:36.162Z,14.90
2022-10-02T21:26:40.007Z,12.07
2022-10-02T21:29:35.361Z,14.63
2022-10-02T21:32:55.507Z,13.52
2022-10-02T21:36:08.576Z,14.38
2022-10-02T21:38:56.861Z,14.65
2022-10-02T21:42:17.141Z,15.90
2022-10-02T21:45:32.702Z,17.05
2022-10-02T21:48:36.457Z,19.05
2022-10-02T21:51:33.572Z,19.55
2022-10-02T21:54:53.276Z,22.05
2022-10-02T21:57:56.947Z,18.40
2022-10-02T22:01:07.805Z,16.55
2022-10-02T22:04:37.620Z,18.88
2022-10-02T22:08:07.602Z,15.85
2022-10-02T22:11:23.483Z,11.57
2022-10-02T22:14:26.377Z,15.23
2022-10-02T22:17:23.493Z,11.30
2022-10-02T22:20:44.033Z,13.25
2022-10-02T22:23:57.751Z,13.80
2022-10-02T22:26:45.328Z,13.35
2022-10-02T22:29:53.080Z,11.13
2022-10-02T22:33:12.797Z,13.25
2022-10-02T22:36:39.733Z,12.57
2022-10-02T22:39:24.259Z,12.55
2022-10-02T22:42:31.453Z,11.98
2022-10-02T22:45:28.703Z,9.77
2022-10-02T22:48:51.206Z,12.93
2022-10-02T22:51:51.855Z,12.18
2022-10-02T22:55:02.450Z,14.55
2022-10-02T22:58:01.918Z,13.02
2022-10-02T23:01:07.865Z,13.95
2022-10-02T23:04:21.165Z,9.82
2022-10-02T23:07:21.578Z,11.68
2022-10-02T23:10:55.003Z,12.63
2022-10-02T23:14:37.892Z,11.32
2022-10-02T23:17:52.157Z,9.90
2022-10-02T23:20:53.230Z,13.32
2022-10-02T23:24:11.983Z,10.07
2022-10-02T23:27:10.033Z,10.60
2022-10-02T23:30:11.763Z,11.23
2022-10-02T23:33:18.458Z,11.75
2022-10-02T23:36:29.891Z,13.10
2022-10-02T23:39:43.990Z,10.27
2022-10-02T23:42:52.094Z,11.07
2022-10-02T23:45:47.874Z,9.27
2022-10-02T23:48:32.948Z,9.80
2022-10-02T23:51:45.303Z,10.07
2022-10-02T23:55:07.395Z,8.50
2022-10-02T23:58:12.573Z,10.57
